createdAt,value
2023-01-19T00:00:12.134Z,9.20
2023-01-19T00:03:04.454Z,9.30
2023-01-19T00:05:48.052Z,8.60
2023-01-19T00:08:39.434Z,9.80
2023-01-19T00:11:30.130Z,8.30
2023-01-19T00:14:20.926Z,9.00
2023-01-19T00:17:11.785Z,7.50
2023-01-19T00:19:53.152Z,8.50
2023-01-19T00:22:43.778Z,8.00
2023-01-19T00:25:34.739Z,7.00
2023-01-19T00:28:25.411Z,7.40
2023-01-19T00:31:16.361Z,8.10
2023-01-19T00:33:55.653Z,8.90
2023-01-19T00:36:46.468Z,8.30
2023-01-19T00:39:37.346Z,7.40
2023-01-19T00:42:45.074Z,9.00
2023-01-19T00:45:28.877Z,8.00
2023-01-19T00:48:19.626Z,8.00
2023-01-19T00:51:10.454Z,8.60
2023-01-19T00:54:05.001Z,8.60
2023-01-19T00:56:55.738Z,8.50
2023-01-19T00:59:46.615Z,9.80
2023-01-19T01:02:37.630Z,9.00
2023-01-19T01:05:28.590Z,8.70
2023-01-19T01:08:19.169Z,10.70
2023-01-19T01:11:09.915Z,12.30
2023-01-19T01:14:00.572Z,13.10
2023-01-19T01:19:11.586Z,11.00
2023-01-19T01:22:01.326Z,10.20
2023-01-19T01:24:52.018Z,11.20
2023-01-19T01:27:43.377Z,12.40
2023-01-19T01:30:34.093Z,10.00
2023-01-19T01:33:40.009Z,12.20
2023-01-19T01:36:33.507Z,12.00
2023-01-19T01:39:24.529Z,11.30
2023-01-19T01:42:20.915Z,11.90
2023-01-19T01:45:30.031Z,12.70
2023-01-19T01:48:15.153Z,11.60
2023-01-19T01:51:21.122Z,13.30
2023-01-19T01:54:18.264Z,11.60
2023-01-19T01:56:52.428Z,12.30
2023-01-19T01:59:47.730Z,12.80
2023-01-19T02:02:40.193Z,12.20
2023-01-19T02:05:22.475Z,11.00
2023-01-19T02:08:26.911Z,9.50
2023-01-19T02:11:27.586Z,11.10
2023-01-19T02:13:58.186Z,11.70
2023-01-19T02:16:39.389Z,13.20
2023-01-19T02:19:36.993Z,13.40
2023-01-19T02:22:25.908Z,12.10
2023-01-19T02:24:59.796Z,11.80
2023-01-19T02:27:30.443Z,13.80
2023-01-19T02:30:21.742Z,12.30
2023-01-19T02:33:12.443Z,13.30
2023-01-19T02:36:03.367Z,12.80
2023-01-19T02:38:45.789Z,12.50
2023-01-19T02:41:31.844Z,11.90
2023-01-19T02:44:24.890Z,13.60
2023-01-19T02:47:15.827Z,13.50
2023-01-19T02:50:01.758Z,13.50
2023-01-19T02:52:56.963Z,12.30
2023-01-19T02:55:54.593Z,14.80
2023-01-19T02:58:51.312Z,11.70
2023-01-19T03:02:01.889Z,11.20
2023-01-19T03:05:09.355Z,9.80
2023-01-19T03:08:09.469Z,12.50
2023-01-19T03:11:00.442Z,13.30
2023-01-19T03:13:55.526Z,12.00
2023-01-19T03:16:48.981Z,12.80
2023-01-19T03:19:37.555Z,10.80
2023-01-19T03:22:30.561Z,12.10
2023-01-19T03:25:23.884Z,12.00
2023-01-19T03:28:07.957Z,13.20
2023-01-19T03:31:03.883Z,13.30
2023-01-19T03:33:48.810Z,12.50
2023-01-19T03:36:43.291Z,12.80
2023-01-19T03:39:35.224Z,13.90
2023-01-19T03:42:21.376Z,13.50
2023-01-19T03:45:15.239Z,12.90
2023-01-19T03:48:07.326Z,12.60
2023-01-19T03:50:58.203Z,12.60
2023-01-19T03:53:49.961Z,13.50
2023-01-19T03:56:40.637Z,11.30
2023-01-19T03:59:31.297Z,13.30
2023-01-19T04:02:22.389Z,13.50
2023-01-19T04:05:14.462Z,12.20
2023-01-19T04:08:05.270Z,11.10
2023-01-19T04:10:38.920Z,11.90
2023-01-19T04:13:09.347Z,13.60
2023-01-19T04:16:03.785Z,11.90
2023-01-19T04:18:54.649Z,13.00
2023-01-19T04:21:28.458Z,10.70
2023-01-19T04:24:01.620Z,11.50
2023-01-19T04:26:42.251Z,12.00
2023-01-19T04:29:32.758Z,11.90
2023-01-19T04:32:23.417Z,10.10
2023-01-19T04:35:14.068Z,11.60
2023-01-19T04:37:57.548Z,12.90
2023-01-19T04:40:49.911Z,10.40
2023-01-19T04:43:40.992Z,11.20
2023-01-19T04:46:31.870Z,12.90
2023-01-19T04:49:22.947Z,12.90
2023-01-19T04:52:13.653Z,12.20
2023-01-19T04:55:05.010Z,11.90
2023-01-19T04:57:56.039Z,13.40
2023-01-19T05:00:37.606Z,13.00
2023-01-19T05:03:28.420Z,13.40
2023-01-19T05:06:12.796Z,13.00
2023-01-19T05:09:03.608Z,14.10
2023-01-19T05:11:54.310Z,11.90
2023-01-19T05:14:27.992Z,13.60
2023-01-19T05:17:18.641Z,13.00
2023-01-19T05:20:15.716Z,13.30
2023-01-19T05:23:07.121Z,12.80
2023-01-19T05:26:00.755Z,12.20
2023-01-19T05:28:51.435Z,13.90
2023-01-19T05:31:42.180Z,14.80
2023-01-19T05:34:25.709Z,14.10
2023-01-19T05:37:16.457Z,14.40
2023-01-19T05:40:09.570Z,11.90
2023-01-19T05:42:49.590Z,13.80
2023-01-19T05:45:41.097Z,14.60
2023-01-19T05:51:21.028Z,13.50
2023-01-19T05:54:13.332Z,13.40
2023-01-19T05:57:04.889Z,13.50
2023-01-19T05:59:44.905Z,14.30
2023-01-19T06:02:35.650Z,15.10
2023-01-19T06:05:10.056Z,12.60
2023-01-19T06:07:48.657Z,13.30
2023-01-19T06:10:35.647Z,15.00
2023-01-19T06:13:06.259Z,12.60
2023-01-19T06:15:37.551Z,12.50
2023-01-19T06:18:11.093Z,13.30
2023-01-19T06:20:47.170Z,13.60
2023-01-19T06:23:30.407Z,12.30
2023-01-19T06:26:14.255Z,13.60
2023-01-19T06:29:05.153Z,13.30
2023-01-19T06:31:46.814Z,13.40
2023-01-19T06:34:38.509Z,15.20
2023-01-19T06:37:30.729Z,13.80
2023-01-19T06:40:21.683Z,14.20
2023-01-19T06:43:12.986Z,15.30
2023-01-19T06:46:04.973Z,14.40
2023-01-19T06:48:55.998Z,14.40
2023-01-19T06:51:46.623Z,15.90
2023-01-19T06:54:37.299Z,14.50
2023-01-19T06:57:21.387Z,13.30
2023-01-19T07:00:14.845Z,14.80
2023-01-19T07:03:06.683Z,12.90
2023-01-19T07:05:49.939Z,15.10
2023-01-19T07:08:20.321Z,16.10
2023-01-19T07:11:25.849Z,13.30
2023-01-19T07:13:51.463Z,13.30
2023-01-19T07:16:33.340Z,13.60
2023-01-19T07:19:24.373Z,13.70
2023-01-19T07:22:04.956Z,14.10
2023-01-19T07:24:35.729Z,14.80
2023-01-19T07:27:28.698Z,10.10
2023-01-19T07:30:18.759Z,12.60
2023-01-19T07:33:09.598Z,12.20
2023-01-19T07:36:00.397Z,10.40
2023-01-19T07:38:51.206Z,11.80
2023-01-19T07:41:42.005Z,13.30
2023-01-19T07:44:32.911Z,11.60
2023-01-19T07:47:23.713Z,12.10
2023-01-19T07:50:16.018Z,13.00
2023-01-19T07:53:12.030Z,12.20
2023-01-19T07:55:58.229Z,13.50
2023-01-19T07:58:41.969Z,13.40
2023-01-19T08:01:32.881Z,14.00
2023-01-19T08:04:23.934Z,11.40
2023-01-19T08:07:15.198Z,11.80
2023-01-19T08:10:06.646Z,12.50
2023-01-19T08:15:49.804Z,11.60
2023-01-19T08:18:40.789Z,12.40
2023-01-19T08:21:33.459Z,13.60
2023-01-19T08:24:21.389Z,13.10
2023-01-19T08:27:12.293Z,12.50
2023-01-19T08:30:03.660Z,13.20
2023-01-19T08:32:58.212Z,14.10
2023-01-19T08:35:51.744Z,12.00
2023-01-19T08:38:44.756Z,14.20
2023-01-19T08:41:35.518Z,12.20
2023-01-19T08:44:25.991Z,14.70
2023-01-19T08:47:08.482Z,14.30
2023-01-19T08:49:59.312Z,12.80
2023-01-19T08:52:50.299Z,14.00
2023-01-19T08:55:32.331Z,11.20
2023-01-19T08:58:06.291Z,15.20
2023-01-19T09:00:57.158Z,13.20
2023-01-19T09:03:47.979Z,15.00
2023-01-19T09:06:38.889Z,13.90
2023-01-19T09:09:29.735Z,14.10
2023-01-19T09:12:20.569Z,14.20
2023-01-19T09:15:12.395Z,12.60
2023-01-19T09:18:03.453Z,14.10
2023-01-19T09:21:02.216Z,13.00
2023-01-19T09:23:36.501Z,12.40
2023-01-19T09:26:27.225Z,13.10
2023-01-19T09:29:16.960Z,11.80
2023-01-19T09:31:58.670Z,13.10
2023-01-19T09:34:49.562Z,12.50
2023-01-19T09:37:40.399Z,13.80
2023-01-19T09:40:31.041Z,11.80
2023-01-19T09:43:36.977Z,11.60
2023-01-19T09:46:24.530Z,12.30
2023-01-19T09:49:11.270Z,11.90
2023-01-19T09:51:55.094Z,11.70
2023-01-19T09:54:52.892Z,12.10
2023-01-19T09:57:45.131Z,11.90
2023-01-19T10:00:36.340Z,10.70
2023-01-19T10:03:27.380Z,12.70
2023-01-19T10:06:19.069Z,12.60
2023-01-19T10:08:58.086Z,12.20
2023-01-19T10:11:53.098Z,12.00
2023-01-19T10:14:50.701Z,11.90
2023-01-19T10:17:56.679Z,11.80
2023-01-19T10:20:51.140Z,10.90
2023-01-19T10:23:45.833Z,12.30
2023-01-19T10:26:38.708Z,13.10
2023-01-19T10:29:35.413Z,13.30
2023-01-19T10:32:28.109Z,13.00
2023-01-19T10:35:24.548Z,12.00
2023-01-19T10:38:22.284Z,10.80
2023-01-19T10:41:19.373Z,13.30
2023-01-19T10:44:12.144Z,13.50
2023-01-19T10:47:03.363Z,13.30
2023-01-19T10:49:48.295Z,12.60
2023-01-19T10:52:37.216Z,13.50
2023-01-19T10:55:24.776Z,12.70
2023-01-19T10:58:30.182Z,12.50
2023-01-19T11:01:19.150Z,12.10
2023-01-19T11:04:29.780Z,12.20
2023-01-19T11:07:24.343Z,12.00
2023-01-19T11:10:24.046Z,12.30
2023-01-19T11:13:16.649Z,12.90
2023-01-19T11:15:59.622Z,13.80
2023-01-19T11:18:55.778Z,10.80
2023-01-19T11:21:36.171Z,10.80
2023-01-19T11:24:25.764Z,14.60
2023-01-19T11:27:18.882Z,13.70
2023-01-19T11:32:50.241Z,12.50
2023-01-19T11:35:43.233Z,12.70
2023-01-19T11:38:27.098Z,12.70
2023-01-19T11:41:22.275Z,13.10
2023-01-19T11:44:21.123Z,12.10
2023-01-19T11:47:19.681Z,12.20
2023-01-19T11:50:07.324Z,12.90
2023-01-19T11:53:05.686Z,11.80
2023-01-19T11:55:58.807Z,12.80
2023-01-19T11:58:34.245Z,11.40
2023-01-19T12:01:30.409Z,12.50
2023-01-19T12:04:27.590Z,13.50
2023-01-19T12:07:30.602Z,12.60
2023-01-19T12:10:25.538Z,11.60
2023-01-19T12:13:00.116Z,12.00
2023-01-19T12:18:47.273Z,11.70
2023-01-19T12:21:38.544Z,12.60
2023-01-19T12:24:24.656Z,11.30
2023-01-19T12:27:23.702Z,12.30
2023-01-19T12:30:21.118Z,12.50
2023-01-19T12:33:34.639Z,12.30
2023-01-19T12:36:41.629Z,11.60
2023-01-19T12:39:26.521Z,11.90
2023-01-19T12:42:21.271Z,11.40
2023-01-19T12:45:18.394Z,12.30
2023-01-19T12:47:59.253Z,12.20
2023-01-19T12:50:40.616Z,13.10
2023-01-19T12:53:31.795Z,12.20
2023-01-19T12:56:31.185Z,12.50
2023-01-19T12:59:29.177Z,11.30
2023-01-19T13:02:46.563Z,11.70
2023-01-19T13:06:00.012Z,10.50
2023-01-19T13:09:02.016Z,11.20
2023-01-19T13:12:23.707Z,10.80
2023-01-19T13:15:35.624Z,11.30
2023-01-19T13:18:29.539Z,13.50
2023-01-19T13:21:30.440Z,11.30
2023-01-19T13:24:23.382Z,12.30
2023-01-19T13:27:15.025Z,10.00
2023-01-19T13:29:57.741Z,11.80
2023-01-19T13:32:48.066Z,11.40
2023-01-19T13:35:39.003Z,12.60
2023-01-19T13:38:32.865Z,11.10
2023-01-19T13:41:20.108Z,11.40
2023-01-19T13:44:14.918Z,11.30
2023-01-19T13:47:09.184Z,11.60
2023-01-19T13:50:02.229Z,10.70
2023-01-19T13:52:46.230Z,10.80
2023-01-19T13:55:37.106Z,10.30
2023-01-19T13:58:26.248Z,11.90
2023-01-19T14:01:29.000Z,11.70
2023-01-19T14:04:32.022Z,10.70
2023-01-19T14:07:26.437Z,11.30
2023-01-19T14:10:18.523Z,9.40
2023-01-19T14:13:17.403Z,11.00
2023-01-19T14:16:02.876Z,9.50
2023-01-19T14:19:04.778Z,10.50
2023-01-19T14:22:03.556Z,10.80
2023-01-19T14:24:54.586Z,9.50
2023-01-19T14:27:45.314Z,9.50
2023-01-19T14:30:36.907Z,10.10
2023-01-19T14:33:35.733Z,10.40
2023-01-19T14:36:30.720Z,8.50
2023-01-19T14:39:26.312Z,11.30
2023-01-19T14:42:19.718Z,9.50
2023-01-19T14:45:01.152Z,9.20
2023-01-19T14:47:44.717Z,8.80
2023-01-19T14:50:38.689Z,8.30
2023-01-19T14:53:29.971Z,9.00
2023-01-19T14:56:29.873Z,9.10
2023-01-19T15:00:07.195Z,8.90
2023-01-19T15:03:46.105Z,7.90
2023-01-19T15:06:28.247Z,9.60
2023-01-19T15:09:19.090Z,9.10
2023-01-19T15:12:17.356Z,10.70
2023-01-19T15:15:16.783Z,8.70
2023-01-19T15:18:13.107Z,9.40
2023-01-19T15:20:53.222Z,8.90
2023-01-19T15:23:35.320Z,7.90
2023-01-19T15:26:14.867Z,9.00
2023-01-19T15:28:58.582Z,9.70
2023-01-19T15:31:40.295Z,9.10
2023-01-19T15:34:31.692Z,9.20
2023-01-19T15:37:05.448Z,8.80
2023-01-19T15:39:46.204Z,9.30
2023-01-19T15:42:36.826Z,8.90
2023-01-19T15:45:39.777Z,9.20
2023-01-19T15:48:30.932Z,10.10
2023-01-19T15:51:05.541Z,8.50
2023-01-19T15:53:56.673Z,9.70
2023-01-19T15:56:47.496Z,8.90
2023-01-19T16:00:27.037Z,8.60
2023-01-19T16:02:58.299Z,10.80
2023-01-19T16:05:49.372Z,10.10
2023-01-19T16:08:34.151Z,8.90
2023-01-19T16:11:25.187Z,9.50
2023-01-19T16:13:55.989Z,11.30
2023-01-19T16:16:46.989Z,11.30
2023-01-19T16:19:48.017Z,10.60
2023-01-19T16:22:27.812Z,9.80
2023-01-19T16:25:02.050Z,9.90
2023-01-19T16:27:45.707Z,10.70
2023-01-19T16:30:20.398Z,9.80
2023-01-19T16:33:01.562Z,11.20
2023-01-19T16:35:52.560Z,11.70
2023-01-19T16:38:43.418Z,11.00
2023-01-19T16:41:24.450Z,11.80
2023-01-19T16:44:17.428Z,13.10
2023-01-19T16:47:08.436Z,10.90
2023-01-19T16:49:59.298Z,12.00
2023-01-19T16:52:50.653Z,10.90
2023-01-19T16:55:43.788Z,10.60
2023-01-19T16:58:37.525Z,10.10
2023-01-19T17:01:29.981Z,10.90
2023-01-19T17:04:21.563Z,11.70
2023-01-19T17:09:44.276Z,10.20
2023-01-19T17:12:26.363Z,8.90
2023-01-19T17:15:08.919Z,9.90
2023-01-19T17:17:59.973Z,9.70
2023-01-19T17:20:50.926Z,9.60
2023-01-19T17:23:45.726Z,10.20
2023-01-19T17:26:37.076Z,11.50
2023-01-19T17:29:27.063Z,9.40
2023-01-19T17:32:08.328Z,10.80
2023-01-19T17:34:59.041Z,10.20
2023-01-19T17:37:53.383Z,9.90
2023-01-19T17:40:35.188Z,10.80
2023-01-19T17:43:26.149Z,9.70
2023-01-19T17:46:17.615Z,9.30
2023-01-19T17:49:09.743Z,10.50
2023-01-19T17:51:43.205Z,11.10
2023-01-19T17:54:34.100Z,10.60
2023-01-19T17:57:24.919Z,12.10
2023-01-19T18:00:17.713Z,11.40
2023-01-19T18:03:08.514Z,10.10
2023-01-19T18:05:56.887Z,12.50
2023-01-19T18:08:49.002Z,9.40
2023-01-19T18:11:34.028Z,8.30
2023-01-19T18:14:15.193Z,9.70
2023-01-19T18:17:06.010Z,9.70
2023-01-19T18:19:56.860Z,9.00
2023-01-19T18:22:47.837Z,11.30
2023-01-19T18:25:29.577Z,10.10
2023-01-19T18:28:13.057Z,9.20
2023-01-19T18:31:07.323Z,10.30
2023-01-19T18:33:48.706Z,8.90
2023-01-19T18:39:20.243Z,9.30
2023-01-19T18:42:11.434Z,10.20
2023-01-19T18:45:02.412Z,9.30
2023-01-19T18:47:36.624Z,8.30
2023-01-19T18:52:57.835Z,8.70
2023-01-19T18:55:37.484Z,9.10
2023-01-19T18:58:29.239Z,7.90
2023-01-19T19:01:31.496Z,8.40
2023-01-19T19:04:23.568Z,8.70
2023-01-19T19:07:03.169Z,8.90
2023-01-19T19:09:47.948Z,6.90
2023-01-19T19:12:32.785Z,9.50
2023-01-19T19:15:03.452Z,8.50
2023-01-19T19:17:45.437Z,8.60
2023-01-19T19:20:38.387Z,7.80
2023-01-19T19:23:12.776Z,10.20
2023-01-19T19:26:08.087Z,9.90
2023-01-19T19:28:59.532Z,9.60
2023-01-19T19:31:52.472Z,9.50
2023-01-19T19:34:34.119Z,8.90
2023-01-19T19:37:24.952Z,11.00
2023-01-19T19:40:16.287Z,11.30
2023-01-19T19:43:07.179Z,11.10
2023-01-19T19:46:02.442Z,10.20
2023-01-19T19:49:21.437Z,12.10
2023-01-19T19:52:05.101Z,9.60
2023-01-19T19:54:56.163Z,12.30
2023-01-19T19:57:47.644Z,13.30
2023-01-19T20:00:32.712Z,11.20
2023-01-19T20:03:26.563Z,10.60
2023-01-19T20:06:05.541Z,10.80
2023-01-19T20:08:52.208Z,11.90
2023-01-19T20:11:44.157Z,12.30
2023-01-19T20:14:33.763Z,12.20
2023-01-19T20:17:24.938Z,11.90
2023-01-19T20:19:55.656Z,11.70
2023-01-19T20:22:36.752Z,11.40
2023-01-19T20:25:09.111Z,11.50
2023-01-19T20:27:39.981Z,12.40
2023-01-19T20:30:14.567Z,14.80
2023-01-19T20:32:48.239Z,12.70
2023-01-19T20:35:39.334Z,12.40
2023-01-19T20:38:30.163Z,14.00
2023-01-19T20:41:22.214Z,14.00
2023-01-19T20:44:14.985Z,13.00
2023-01-19T20:46:56.925Z,16.00
2023-01-19T20:49:47.823Z,13.70
2023-01-19T20:52:18.416Z,14.70
2023-01-19T20:54:48.967Z,12.20
2023-01-19T20:57:22.945Z,15.80
2023-01-19T21:00:09.437Z,13.00
2023-01-19T21:02:49.304Z,14.00
2023-01-19T21:05:19.935Z,20.10
2023-01-19T21:08:10.865Z,13.60
2023-01-19T21:11:01.748Z,21.10
2023-01-19T21:13:56.048Z,16.70
2023-01-19T21:16:30.301Z,15.50
2023-01-19T21:19:04.643Z,16.90
2023-01-19T21:21:56.314Z,14.80
2023-01-19T21:24:47.047Z,23.30
2023-01-19T21:27:30.494Z,15.80
2023-01-19T21:30:22.485Z,12.70
2023-01-19T21:33:13.726Z,16.30
2023-01-19T21:35:52.562Z,14.30
2023-01-19T21:38:43.398Z,15.00
2023-01-19T21:41:36.106Z,15.00
2023-01-19T21:44:26.810Z,15.00
2023-01-19T21:47:02.284Z,16.10
2023-01-19T21:49:53.418Z,22.50
2023-01-19T21:52:37.239Z,18.00
2023-01-19T21:55:28.331Z,15.40
2023-01-19T21:58:01.460Z,14.60
2023-01-19T22:00:52.333Z,13.20
2023-01-19T22:03:43.411Z,14.10
2023-01-19T22:06:24.235Z,15.50
2023-01-19T22:08:55.545Z,14.20
2023-01-19T22:11:37.198Z,16.20
2023-01-19T22:14:21.533Z,15.00
2023-01-19T22:17:12.423Z,19.30
2023-01-19T22:20:03.170Z,15.40
2023-01-19T22:22:46.438Z,15.50
2023-01-19T22:25:37.169Z,14.70
2023-01-19T22:28:08.547Z,16.10
2023-01-19T22:30:39.372Z,14.30
2023-01-19T22:33:22.602Z,16.70
2023-01-19T22:35:55.967Z,14.80
2023-01-19T22:38:26.359Z,15.50
2023-01-19T22:41:22.158Z,16.70
2023-01-19T22:43:55.320Z,15.50
2023-01-19T22:46:27.656Z,16.90
2023-01-19T22:49:19.297Z,17.40
2023-01-19T22:54:38.320Z,15.30
2023-01-19T22:57:28.875Z,13.40
2023-01-19T23:00:16.064Z,13.90
2023-01-19T23:02:56.840Z,14.30
2023-01-19T23:05:27.415Z,14.50
2023-01-19T23:08:08.763Z,15.20
2023-01-19T23:10:59.476Z,14.20
2023-01-19T23:13:44.637Z,14.70
2023-01-19T23:19:04.925Z,14.90
2023-01-19T23:21:37.006Z,14.10
2023-01-19T23:24:27.810Z,15.50
2023-01-19T23:27:11.883Z,14.50
2023-01-19T23:29:56.082Z,13.50
2023-01-19T23:32:39.735Z,14.60
2023-01-19T23:35:11.786Z,13.30
2023-01-19T23:38:02.700Z,15.30
2023-01-19T23:40:53.303Z,14.90
2023-01-19T23:43:44.140Z,13.50
2023-01-19T23:46:16.354Z,14.50
2023-01-19T23:49:07.235Z,13.20
2023-01-19T23:51:41.871Z,15.20
2023-01-19T23:54:23.272Z,13.90
2023-01-19T23:57:14.135Z,15.80
2023-01-19T23:59:54.949Z,15.60
